Time;durP1;ratioP1;P1;durP2;ratioP2;P2;SDS_P1;SDS_P2;PMS_P1;PMS_P2;Temp;Humidity;BMP_temperature;BMP_pressure;BME280_temperature;BME280_humidity;BME280_pressure;Samples;Min_cycle;Max_cycle;Signal;HPM_P1;HPM_P2
2022/09/17 00:02:15;;;;;;;12.27;3.03;;;;;;;11.70;93.83;99597.25;5101863;28;20459;-64
2022/09/17 00:04:41;;;;;;;4.33;2.03;;;;;;;11.73;94.08;99604.13;5101178;28;20539;-65
2022/09/17 00:07:09;;;;;;;5.63;2.10;;;;;;;11.80;93.87;99607.81;5119170;28;20502;-65
2022/09/17 00:09:36;;;;;;;2.90;1.73;;;;;;;11.98;92.97;99613.91;5102807;28;20504;-65
2022/09/17 00:12:03;;;;;;;7.10;2.50;;;;;;;12.00;92.12;99616.44;5102074;28;20479;-65
2022/09/17 00:14:30;;;;;;;4.97;1.80;;;;;;;11.96;92.27;99612.38;5102335;28;20455;-65
2022/09/17 00:16:56;;;;;;;4.73;2.03;;;;;;;11.88;92.22;99610.50;5101383;28;20494;-65
2022/09/17 00:19:24;;;;;;;4.33;2.10;;;;;;;11.99;91.70;99614.75;5110203;28;20466;-65
2022/09/17 00:21:51;;;;;;;5.50;1.60;;;;;;;11.88;92.33;99613.19;5111746;28;20470;-65
2022/09/17 00:24:20;;;;;;;4.77;1.83;;;;;;;11.67;93.44;99625.19;5123221;28;20533;-65
2022/09/17 00:26:47;;;;;;;8.70;2.10;;;;;;;11.73;93.46;99622.88;5109375;28;20501;-65
2022/09/17 00:29:14;;;;;;;8.47;3.03;;;;;;;11.68;93.63;99610.81;5122715;28;20469;-65
2022/09/17 00:31:41;;;;;;;7.93;2.60;;;;;;;11.76;93.48;99607.31;5109670;28;20526;-65
2022/09/17 00:34:08;;;;;;;10.90;2.57;;;;;;;11.69;93.35;99611.66;5099110;28;20482;-66
2022/09/17 00:36:35;;;;;;;7.80;2.63;;;;;;;11.75;93.37;99612.81;5097934;28;20497;-65
2022/09/17 00:39:03;;;;;;;6.53;2.33;;;;;;;11.66;93.98;99612.78;5093698;28;20455;-65
2022/09/17 00:41:32;;;;;;;9.57;3.10;;;;;;;11.72;93.52;99621.19;5108557;28;20477;-64
2022/09/17 00:44:00;;;;;;;7.03;3.13;;;;;;;11.66;94.06;99612.78;5122007;28;20489;-64
2022/09/17 00:46:32;;;;;;;9.60;2.93;;;;;;;11.61;93.82;99616.97;5108824;28;20494;-64
2022/09/17 00:49:00;;;;;;;6.63;2.97;;;;;;;11.66;93.88;99620.00;5100979;28;20450;-64
2022/09/17 00:51:33;;;;;;;11.00;2.60;;;;;;;11.73;92.88;99621.00;5100974;28;20490;-64
2022/09/17 00:54:00;;;;;;;5.27;2.63;;;;;;;11.67;93.56;99621.69;5101785;28;20490;-64
2022/09/17 00:56:29;;;;;;;9.03;2.50;;;;;;;11.61;93.74;99609.78;5100729;28;20502;-64
2022/09/17 00:58:57;;;;;;;11.70;3.20;;;;;;;11.59;93.87;99611.78;5104926;28;20446;-64
2022/09/17 01:01:24;;;;;;;10.40;3.37;;;;;;;11.62;93.72;99616.81;5120713;28;20470;-64
2022/09/17 01:03:51;;;;;;;8.47;3.40;;;;;;;11.40;93.99;99620.06;5117372;28;20444;-65
2022/09/17 01:06:22;;;;;;;9.50;3.03;;;;;;;11.45;94.66;99615.91;5100830;28;20509;-65
2022/09/17 01:09:04;;;;;;;11.10;2.93;;;;;;;11.56;93.85;99619.28;5102528;28;21048;-65
2022/09/17 01:11:43;;;;;;;9.07;2.90;;;;;;;11.62;93.94;99627.50;5110996;28;20486;-64
2022/09/17 01:14:21;;;;;;;8.80;2.60;;;;;;;11.59;93.16;99635.88;5100822;28;20490;-65
2022/09/17 01:16:55;;;;;;;10.83;3.40;;;;;;;11.53;93.64;99628.50;5099466;28;20479;-65
2022/09/17 01:19:39;;;;;;;15.53;3.13;;;;;;;11.61;93.24;99630.34;5106908;28;20458;-64
2022/09/17 01:22:08;;;;;;;14.63;3.27;;;;;;;11.76;92.31;99634.09;5120783;28;20466;-64
2022/09/17 01:24:46;;;;;;;9.50;3.30;;;;;;;11.53;93.13;99636.53;5108428;28;20446;-64
2022/09/17 01:27:46;;;;;;;9.00;3.00;;;;;;;11.44;93.30;99633.00;5096069;28;20474;-65
2022/09/17 01:30:33;;;;;;;11.70;3.47;;;;;;;11.42;94.12;99632.31;5073057;28;20520;-65
2022/09/17 01:33:06;;;;;;;13.60;3.33;;;;;;;11.39;93.41;99637.97;5099509;28;20495;-65
2022/09/17 01:35:35;;;;;;;8.77;3.20;;;;;;;11.44;93.17;99641.00;5099734;28;20482;-64
2022/09/17 01:38:07;;;;;;;11.77;3.23;;;;;;;11.37;93.25;99649.84;5114455;28;20451;-65
2022/09/17 01:40:38;;;;;;;14.63;3.60;;;;;;;11.33;93.74;99643.13;5119981;28;20466;-66
2022/09/17 01:43:08;;;;;;;15.73;3.70;;;;;;;11.30;93.78;99644.28;5105659;28;20459;-65
2022/09/17 01:45:39;;;;;;;10.50;4.10;;;;;;;11.28;94.19;99651.63;5099556;28;20471;-65
2022/09/17 01:48:10;;;;;;;14.93;4.30;;;;;;;11.36;94.30;99648.16;5104115;28;20454;-65
2022/09/17 01:50:39;;;;;;;12.60;3.00;;;;;;;11.30;94.35;99649.63;5119399;28;20474;-65
2022/09/17 01:53:07;;;;;;;9.90;4.10;;;;;;;11.34;94.40;99655.53;5120718;28;20494;-65
2022/09/17 01:55:37;;;;;;;14.03;3.50;;;;;;;11.43;93.26;99649.22;5118758;28;20461;-64
2022/09/17 01:58:09;;;;;;;12.03;3.27;;;;;;;11.49;92.96;99659.25;5120632;28;20462;-64
2022/09/17 02:00:41;;;;;;;20.93;4.40;;;;;;;11.47;93.14;99661.25;5119381;28;20545;-65
2022/09/17 02:03:12;;;;;;;12.40;4.47;;;;;;;11.35;93.17;99657.19;5099633;28;20471;-65
2022/09/17 02:05:40;;;;;;;19.60;5.40;;;;;;;11.28;93.34;99654.31;5099807;28;20502;-65
2022/09/17 02:08:10;;;;;;;15.17;4.10;;;;;;;11.29;93.68;99656.81;5100123;28;20475;-65
2022/09/17 02:10:40;;;;;;;10.10;4.30;;;;;;;11.27;93.28;99653.47;5107340;28;20505;-65
2022/09/17 02:13:10;;;;;;;17.90;4.37;;;;;;;11.20;93.29;99647.09;5120208;28;20533;-64
2022/09/17 02:15:41;;;;;;;17.57;4.90;;;;;;;11.10;93.45;99643.69;5118113;28;21069;-65
2022/09/17 02:18:13;;;;;;;11.50;4.73;;;;;;;11.08;93.62;99646.53;5099205;28;20486;-64
2022/09/17 02:20:45;;;;;;;20.03;5.53;;;;;;;11.09;93.63;99652.69;5098998;28;20958;-66
2022/09/17 02:23:14;;;;;;;15.20;5.03;;;;;;;11.00;93.79;99653.66;5100423;28;20509;-66
2022/09/17 02:25:44;;;;;;;14.57;4.97;;;;;;;10.95;94.42;99650.63;5119646;28;20485;-66
2022/09/17 02:28:15;;;;;;;19.93;5.77;;;;;;;10.98;94.38;99655.66;5119519;28;20481;-66
2022/09/17 02:30:43;;;;;;;15.20;4.87;;;;;;;10.91;94.37;99652.78;5114543;27;20565;-65
2022/09/17 02:33:13;;;;;;;20.20;4.83;;;;;;;10.89;94.47;99670.81;5103977;28;20482;-65
2022/09/17 02:35:40;;;;;;;19.63;4.97;;;;;;;10.83;94.35;99661.59;5119883;28;20465;-65
2022/09/17 02:38:07;;;;;;;19.70;4.53;;;;;;;10.91;94.31;99666.97;5110181;28;20482;-65
2022/09/17 02:40:36;;;;;;;13.10;4.40;;;;;;;10.82;94.07;99662.56;5098870;28;20502;-65
2022/09/17 02:43:10;;;;;;;14.80;4.27;;;;;;;10.77;94.39;99675.56;5103277;28;20469;-65
2022/09/17 02:45:48;;;;;;;11.97;4.00;;;;;;;10.64;94.33;99670.66;5113287;28;20519;-64
2022/09/17 02:48:27;;;;;;;23.87;4.40;;;;;;;10.69;94.26;99667.50;5104050;28;20469;-65
2022/09/17 02:51:08;;;;;;;15.23;4.60;;;;;;;10.55;94.66;99668.88;5118031;28;20508;-65
2022/09/17 02:53:38;;;;;;;12.50;4.30;;;;;;;10.64;95.05;99670.66;5119757;28;20490;-65
2022/09/17 02:56:12;;;;;;;11.80;3.97;;;;;;;10.52;94.77;99671.88;5112436;28;20498;-65
2022/09/17 02:58:45;;;;;;;12.60;4.10;;;;;;;10.61;94.54;99670.13;5098376;28;20458;-65
2022/09/17 03:01:19;;;;;;;11.90;3.80;;;;;;;10.52;94.61;99669.22;5091354;28;20517;-65
2022/09/17 03:03:49;;;;;;;16.67;4.77;;;;;;;10.49;94.27;99669.53;5091457;28;20458;-65
2022/09/17 03:06:16;;;;;;;13.57;4.37;;;;;;;10.55;94.18;99661.72;5092456;28;20463;-65
2022/09/17 03:08:43;;;;;;;13.60;3.83;;;;;;;10.52;93.73;99662.03;5108158;28;20449;-65
2022/09/17 03:11:11;;;;;;;16.13;4.50;;;;;;;10.54;93.59;99665.38;5118782;28;20477;-65
2022/09/17 03:13:38;;;;;;;17.33;4.97;;;;;;;10.48;94.39;99667.81;5101965;28;20474;-65
2022/09/17 03:16:05;;;;;;;11.70;4.93;;;;;;;10.55;94.01;99668.88;5098606;28;20518;-65
2022/09/17 03:18:34;;;;;;;11.87;3.83;;;;;;;10.38;93.90;99665.25;5105499;28;20461;-64
2022/09/17 03:21:01;;;;;;;17.73;4.23;;;;;;;10.32;93.58;99647.97;5119679;28;20469;-65
2022/09/17 03:23:27;;;;;;;21.40;4.03;;;;;;;10.35;93.36;99655.69;5110314;28;20475;-65
2022/09/17 03:25:55;;;;;;;12.63;4.23;;;;;;;10.31;92.98;99657.00;5103102;28;20619;-65
2022/09/17 03:28:21;;;;;;;9.57;3.30;;;;;;;10.22;93.56;99659.72;5115443;28;20457;-65
2022/09/17 03:30:48;;;;;;;14.60;3.70;;;;;;;10.24;93.63;99658.59;5123208;28;20541;-65
2022/09/17 03:33:14;;;;;;;14.10;3.60;;;;;;;10.15;93.64;99662.16;5111212;28;20495;-65
2022/09/17 03:35:44;;;;;;;23.00;3.60;;;;;;;10.09;93.63;99673.47;5103245;28;20490;-65
2022/09/17 03:38:11;;;;;;;18.20;3.27;;;;;;;9.97;94.04;99673.66;5101159;28;20883;-64
2022/09/17 03:40:38;;;;;;;9.53;3.27;;;;;;;9.94;93.92;99673.13;5094633;28;20897;-65
2022/09/17 03:43:05;;;;;;;17.70;4.70;;;;;;;9.94;94.27;99678.47;5112237;28;20442;-65
2022/09/17 03:45:32;;;;;;;15.57;3.63;;;;;;;9.91;94.07;99673.44;5122791;28;20497;-65
2022/09/17 03:47:58;;;;;;;13.00;3.90;;;;;;;9.82;94.08;99679.69;5114424;28;20443;-65
2022/09/17 03:50:25;;;;;;;11.57;3.03;;;;;;;9.83;93.88;99684.88;5101694;28;20997;-65
2022/09/17 03:52:54;;;;;;;9.13;3.30;;;;;;;9.79;94.16;99692.34;5097164;28;20472;-65
2022/09/17 03:55:21;;;;;;;11.60;4.13;;;;;;;9.77;93.74;99698.81;5102157;28;20470;-65
2022/09/17 03:57:47;;;;;;;13.33;2.67;;;;;;;9.74;93.58;99689.28;5098496;28;20479;-64
2022/09/17 04:00:16;;;;;;;18.00;4.33;;;;;;;9.76;93.80;99703.31;5101120;28;20512;-65
2022/09/17 04:02:42;;;;;;;17.43;5.00;;;;;;;9.72;93.87;99693.06;5120410;28;20922;-65
2022/09/17 04:05:10;;;;;;;17.83;3.53;;;;;;;9.65;93.74;99706.16;5120362;28;20476;-65
2022/09/17 04:07:36;;;;;;;15.10;4.00;;;;;;;9.65;93.69;99710.66;5095087;28;20439;-65
2022/09/17 04:10:05;;;;;;;10.50;3.80;;;;;;;9.67;93.65;99701.53;5101918;28;20515;-65
2022/09/17 04:12:32;;;;;;;14.23;3.80;;;;;;;9.67;93.07;99698.00;5117527;28;20470;-65
2022/09/17 04:14:58;;;;;;;16.23;3.40;;;;;;;9.67;93.13;99701.53;5106956;28;20558;-65
2022/09/17 04:17:25;;;;;;;10.67;3.33;;;;;;;9.61;92.99;99702.94;5100567;28;20495;-65
2022/09/17 04:19:52;;;;;;;17.87;3.07;;;;;;;9.55;93.05;99708.91;5101543;28;20497;-65
2022/09/17 04:22:19;;;;;;;15.47;3.73;;;;;;;9.54;93.00;99707.19;5098350;28;20905;-65
2022/09/17 04:24:45;;;;;;;18.67;4.27;;;;;;;9.55;92.83;99716.91;5095200;28;21141;-65
2022/09/17 04:27:13;;;;;;;19.93;3.97;;;;;;;9.57;92.39;99716.75;5101546;28;20966;-66
2022/09/17 04:29:40;;;;;;;8.00;2.70;;;;;;;9.46;93.19;99719.59;5115138;28;20474;-66
2022/09/17 04:32:06;;;;;;;18.87;3.60;;;;;;;9.48;93.00;99712.28;5121020;28;20470;-66
2022/09/17 04:34:33;;;;;;;17.87;3.53;;;;;;;9.44;93.04;99722.41;5108511;28;20497;-64
2022/09/17 04:37:00;;;;;;;21.03;3.63;;;;;;;9.36;93.03;99717.81;5101022;28;20546;-64
2022/09/17 04:39:26;;;;;;;15.43;3.57;;;;;;;9.39;92.55;99711.34;5098802;28;20450;-64
2022/09/17 04:41:53;;;;;;;21.13;3.60;;;;;;;9.35;92.35;99709.97;5102805;28;20493;-64
2022/09/17 04:44:21;;;;;;;9.93;2.90;;;;;;;9.31;92.71;99709.41;5121755;28;20507;-64
2022/09/17 04:46:48;;;;;;;14.60;2.77;;;;;;;9.33;92.91;99719.94;5116614;28;20501;-64
2022/09/17 04:49:14;;;;;;;13.77;3.23;;;;;;;9.34;92.45;99722.47;5101363;28;20481;-64
2022/09/17 04:51:41;;;;;;;16.73;3.40;;;;;;;9.21;92.65;99717.44;5100936;28;20486;-64
2022/09/17 04:54:07;;;;;;;19.10;5.40;;;;;;;9.30;92.63;99718.38;5096401;28;20474;-65
2022/09/17 04:56:34;;;;;;;21.57;3.43;;;;;;;9.29;92.72;99719.38;5104740;28;20510;-64
2022/09/17 04:59:01;;;;;;;18.10;3.60;;;;;;;9.21;92.53;99714.75;5121255;28;20474;-64
2022/09/17 05:01:29;;;;;;;20.10;3.57;;;;;;;9.31;91.97;99720.09;5117228;28;20509;-65
2022/09/17 05:03:55;;;;;;;18.83;3.80;;;;;;;9.26;92.20;99717.00;5101264;28;20455;-64
2022/09/17 05:06:22;;;;;;;13.83;4.23;;;;;;;9.29;91.77;99722.06;5100266;28;20478;-64
2022/09/17 05:08:49;;;;;;;17.50;4.87;;;;;;;9.17;92.22;99721.38;5102585;28;20486;-64
2022/09/17 05:11:16;;;;;;;16.60;3.53;;;;;;;9.31;92.04;99725.41;5114046;28;20565;-64
2022/09/17 05:13:42;;;;;;;9.40;3.03;;;;;;;9.21;92.09;99725.44;5106419;28;20528;-64
2022/09/17 05:16:09;;;;;;;10.97;2.90;;;;;;;9.17;92.59;99739.22;5093808;28;20878;-64
2022/09/17 05:18:37;;;;;;;19.23;3.50;;;;;;;9.27;92.41;99734.72;5094542;28;20486;-64
2022/09/17 05:21:04;;;;;;;16.73;3.33;;;;;;;9.13;92.77;99738.69;5100433;28;20495;-64
2022/09/17 05:23:30;;;;;;;13.67;3.40;;;;;;;9.18;93.08;99732.88;5102106;28;20467;-64
2022/09/17 05:25:58;;;;;;;17.80;3.73;;;;;;;9.28;92.54;99738.22;5094046;28;20508;-64
2022/09/17 05:28:25;;;;;;;11.50;3.50;;;;;;;9.18;92.49;99748.88;5100206;28;20469;-65
2022/09/17 05:30:51;;;;;;;13.57;3.40;;;;;;;9.17;92.29;99744.56;5106365;28;20497;-64
2022/09/17 05:33:19;;;;;;;21.73;4.10;;;;;;;9.27;92.29;99745.38;5118913;28;20474;-66
2022/09/17 05:35:47;;;;;;;17.80;4.13;;;;;;;9.33;91.75;99743.94;5115657;28;20489;-65
2022/09/17 05:38:13;;;;;;;12.53;2.97;;;;;;;9.30;91.53;99745.06;5099787;28;21081;-63
2022/09/17 05:40:40;;;;;;;11.30;2.50;;;;;;;9.51;90.81;99750.22;5097814;28;20474;-64
2022/09/17 05:43:07;;;;;;;13.40;3.00;;;;;;;9.73;88.90;99754.31;5093103;28;20470;-64
2022/09/17 05:45:34;;;;;;;22.97;3.57;;;;;;;9.66;88.95;99753.22;5099127;28;20462;-67
2022/09/17 05:48:02;;;;;;;8.70;3.17;;;;;;;9.69;88.90;99749.44;5083597;28;20523;-64
2022/09/17 05:50:29;;;;;;;10.00;2.37;;;;;;;9.83;88.49;99758.78;5099897;28;20500;-66
2022/09/17 05:52:57;;;;;;;10.27;2.50;;;;;;;10.04;87.48;99747.84;5101644;28;20478;-66
2022/09/17 05:55:24;;;;;;;10.70;3.10;;;;;;;10.59;85.92;99754.94;5099303;28;21004;-65
2022/09/17 05:57:51;;;;;;;13.30;3.30;;;;;;;11.38;82.83;99751.38;5100314;28;20500;-66
2022/09/17 06:00:18;;;;;;;9.57;2.33;;;;;;;11.84;79.44;99762.69;5099038;28;20447;-65
2022/09/17 06:02:44;;;;;;;13.60;3.03;;;;;;;12.43;76.05;99751.16;5109913;28;20462;-65
2022/09/17 06:05:11;;;;;;;16.77;2.77;;;;;;;12.28;74.98;99756.31;5113584;28;20474;-66
2022/09/17 06:07:38;;;;;;;10.37;2.60;;;;;;;11.54;77.42;99757.84;5100523;28;20434;-65
2022/09/17 06:10:08;;;;;;;12.27;2.67;;;;;;;11.36;78.91;99760.59;5099945;28;20479;-65
2022/09/17 06:12:35;;;;;;;6.33;2.30;;;;;;;11.96;77.27;99760.59;5079263;28;20534;-66
2022/09/17 06:15:02;;;;;;;9.23;2.10;;;;;;;13.68;71.68;99770.56;5088499;28;20442;-65
2022/09/17 06:17:28;;;;;;;22.13;3.67;;;;;;;13.88;68.03;99765.63;5098695;28;20568;-65
2022/09/17 06:19:55;;;;;;;10.77;2.83;;;;;;;14.38;67.27;99763.53;5100852;28;20510;-66
2022/09/17 06:22:24;;;;;;;11.67;3.37;;;;;;;14.55;65.71;99775.03;5117697;28;20485;-67
2022/09/17 06:24:51;;;;;;;7.70;1.87;;;;;;;15.02;63.98;99779.41;5099035;28;20951;-69
2022/09/17 06:27:19;;;;;;;7.60;2.00;;;;;;;14.39;65.43;99767.06;5093228;28;20487;-67
2022/09/17 06:29:45;;;;;;;13.70;3.20;;;;;;;12.81;70.48;99770.28;5092007;28;20463;-67
2022/09/17 06:32:14;;;;;;;7.23;1.87;;;;;;;12.87;71.41;99776.84;5098601;28;20479;-69
2022/09/17 06:34:41;;;;;;;10.23;2.07;;;;;;;14.15;67.49;99776.94;5089534;28;20475;-68
2022/09/17 06:37:07;;;;;;;9.80;2.20;;;;;;;14.99;63.39;99787.84;5109680;28;20490;-68
2022/09/17 06:39:34;;;;;;;6.33;1.80;;;;;;;15.14;63.53;99787.09;5092219;28;20450;-69
2022/09/17 06:42:01;;;;;;;8.63;2.27;;;;;;;14.53;63.13;99784.28;5116912;28;20516;-69
2022/09/17 06:44:29;;;;;;;5.70;2.20;;;;;;;14.84;64.32;99789.66;5107137;28;20485;-68
2022/09/17 06:46:55;;;;;;;9.30;2.60;;;;;;;15.79;60.00;99794.50;5114806;27;20538;-69
2022/09/17 06:49:23;;;;;;;10.80;2.57;;;;;;;17.04;56.39;99786.44;5118609;28;20474;-68
2022/09/17 06:51:49;;;;;;;5.80;1.77;;;;;;;16.02;57.10;99788.19;5106777;27;20486;-68
2022/09/17 06:54:16;;;;;;;7.60;1.70;;;;;;;14.43;61.91;99788.03;5099547;28;20519;-68
2022/09/17 06:56:43;;;;;;;9.87;1.57;;;;;;;13.23;65.74;99781.84;5102672;28;20467;-68
2022/09/17 06:59:09;;;;;;;10.63;2.10;;;;;;;13.50;66.57;99786.06;5102955;28;20447;-68
2022/09/17 07:01:37;;;;;;;9.40;1.97;;;;;;;14.01;64.98;99788.41;5103463;28;20485;-69
2022/09/17 07:04:04;;;;;;;6.20;2.10;;;;;;;13.10;67.04;99787.75;5095807;28;20431;-68
2022/09/17 07:06:30;;;;;;;6.03;1.90;;;;;;;12.85;69.38;99794.97;5095766;28;20498;-68
2022/09/17 07:08:58;;;;;;;15.17;2.67;;;;;;;13.75;67.44;99786.84;5103413;28;20474;-69
2022/09/17 07:11:25;;;;;;;13.50;1.60;;;;;;;15.13;62.97;99797.00;5102937;28;20462;-68
2022/09/17 07:13:51;;;;;;;10.77;1.70;;;;;;;14.01;64.79;99791.97;5102937;28;20518;-69
2022/09/17 07:16:18;;;;;;;7.90;2.27;;;;;;;14.64;62.49;99792.81;5102362;28;20482;-68
2022/09/17 07:18:46;;;;;;;8.80;2.37;;;;;;;16.05;58.56;99790.50;5100796;28;20452;-69
2022/09/17 07:21:13;;;;;;;7.23;1.63;;;;;;;16.50;56.90;99785.88;5119416;28;20903;-68
2022/09/17 07:23:39;;;;;;;8.40;1.80;;;;;;;16.71;55.28;99790.44;5099071;28;20486;-68
2022/09/17 07:26:07;;;;;;;9.80;1.93;;;;;;;16.75;55.26;99782.78;5102873;28;21005;-68
2022/09/17 07:28:34;;;;;;;6.37;1.83;;;;;;;17.92;50.91;99780.66;5119420;28;20438;-68
2022/09/17 07:31:03;;;;;;;5.27;1.97;;;;;;;18.79;50.34;99773.66;5106815;28;20482;-69
2022/09/17 07:33:30;;;;;;;6.50;1.70;;;;;;;17.99;49.83;99785.03;5102824;28;20576;-69
2022/09/17 07:36:00;;;;;;;10.53;2.20;;;;;;;16.83;52.51;99779.16;5101274;28;20497;-68
2022/09/17 07:38:27;;;;;;;9.40;2.73;;;;;;;18.19;50.67;99781.59;5097359;28;20474;-69
2022/09/17 07:40:56;;;;;;;4.37;1.53;;;;;;;17.26;51.99;99782.66;5113372;28;20498;-68
2022/09/17 07:43:23;;;;;;;7.53;1.80;;;;;;;18.63;49.62;99783.81;5103192;28;20506;-68
2022/09/17 07:45:50;;;;;;;5.90;1.77;;;;;;;18.11;50.72;99779.06;5104746;28;20506;-69
2022/09/17 07:48:17;;;;;;;9.90;2.30;;;;;;;20.54;44.38;99785.91;5101196;28;20480;-68
2022/09/17 07:50:43;;;;;;;4.70;1.70;;;;;;;17.88;50.36;99782.91;5111343;28;20463;-68
2022/09/17 07:53:11;;;;;;;6.40;1.90;;;;;;;17.23;53.22;99782.22;5122154;28;20483;-69
2022/09/17 07:55:38;;;;;;;5.90;1.70;;;;;;;17.76;49.91;99784.44;5122831;28;20542;-69
2022/09/17 07:58:05;;;;;;;12.50;2.20;;;;;;;18.95;47.82;99788.69;5117486;28;20478;-68
2022/09/17 08:00:32;;;;;;;7.77;2.37;;;;;;;19.87;46.07;99799.72;5106195;28;20540;-69
2022/09/17 08:02:59;;;;;;;10.43;2.50;;;;;;;18.52;48.09;99786.28;5103221;28;20460;-66
2022/09/17 08:05:27;;;;;;;9.40;2.70;;;;;;;19.14;47.89;99792.47;5099998;28;20523;-70
2022/09/17 08:07:55;;;;;;;7.30;2.37;;;;;;;17.86;50.19;99787.66;5103800;28;20449;-68
2022/09/17 08:10:23;;;;;;;6.27;2.40;;;;;;;19.50;46.44;99783.91;5086400;28;20472;-70
2022/09/17 08:12:50;;;;;;;8.83;2.07;;;;;;;21.10;43.30;99778.84;5094910;28;20441;-69
2022/09/17 08:15:18;;;;;;;6.93;2.03;;;;;;;21.28;41.84;99776.19;5100825;28;20512;-70
2022/09/17 08:17:45;;;;;;;7.30;1.90;;;;;;;21.63;41.07;99771.06;5096884;28;21000;-70
2022/09/17 08:20:12;;;;;;;11.50;1.97;;;;;;;20.18;43.33;99796.28;5101305;28;20881;-70
2022/09/17 08:22:39;;;;;;;8.77;2.03;;;;;;;21.39;42.35;99780.06;5113541;28;20476;-68
2022/09/17 08:25:07;;;;;;;6.73;2.27;;;;;;;20.05;44.62;99775.47;5105233;28;20441;-67
2022/09/17 08:27:37;;;;;;;7.43;2.03;;;;;;;19.19;46.65;99784.53;5103466;28;20795;-68
2022/09/17 08:30:08;;;;;;;5.57;1.70;;;;;;;20.34;43.72;99785.97;5098295;28;20543;-68
2022/09/17 08:32:35;;;;;;;7.90;2.40;;;;;;;19.72;45.36;99783.63;5114558;28;20480;-69
2022/09/17 08:35:02;;;;;;;8.50;1.63;;;;;;;20.88;42.23;99776.50;5108026;28;20508;-68
2022/09/17 08:37:29;;;;;;;5.20;1.50;;;;;;;21.20;40.97;99781.91;5093840;28;20493;-69
2022/09/17 08:39:57;;;;;;;10.70;2.23;;;;;;;20.04;43.42;99776.50;5098697;28;20483;-68
2022/09/17 08:42:27;;;;;;;7.77;1.60;;;;;;;20.28;43.41;99769.50;5095842;28;20472;-68
2022/09/17 08:44:56;;;;;;;4.83;1.67;;;;;;;21.76;39.99;99774.72;5103513;28;20483;-68
2022/09/17 08:47:25;;;;;;;4.67;2.50;;;;;;;19.91;43.71;99781.94;5110488;28;20519;-68
2022/09/17 08:49:53;;;;;;;5.40;1.83;;;;;;;20.79;42.06;99775.09;5100676;28;20479;-68
2022/09/17 08:52:47;;;;;;;6.70;1.90;;;;;;;20.22;42.88;99773.06;5098067;28;20537;-68
2022/09/17 08:55:27;;;;;;;4.10;1.60;;;;;;;21.66;40.78;99783.38;5105583;28;20474;-68
2022/09/17 08:58:00;;;;;;;7.30;1.80;;;;;;;22.07;39.33;99775.63;5107816;28;20448;-68
2022/09/17 09:00:33;;;;;;;8.70;1.60;;;;;;;20.08;42.17;99774.19;5091150;28;20445;-68
2022/09/17 09:03:11;;;;;;;5.90;1.77;;;;;;;19.18;45.23;99791.84;5101335;28;20525;-68
2022/09/17 09:05:42;;;;;;;5.93;1.50;;;;;;;19.90;43.30;99777.59;5118587;28;20526;-69
2022/09/17 09:08:14;;;;;;;6.27;1.50;;;;;;;19.96;41.25;99776.72;5103033;28;20994;-69
2022/09/17 09:10:46;;;;;;;4.40;1.40;;;;;;;21.62;39.25;99766.69;5094437;28;20498;-68
2022/09/17 09:13:16;;;;;;;7.93;2.30;;;;;;;21.06;39.65;99771.13;5091199;28;20445;-69
2022/09/17 09:15:46;;;;;;;4.90;1.70;;;;;;;20.93;39.47;99762.25;5103957;28;20492;-69
2022/09/17 09:18:18;;;;;;;9.37;1.63;;;;;;;20.24;40.80;99768.28;5101033;28;20448;-68
2022/09/17 09:20:50;;;;;;;6.57;1.30;;;;;;;21.99;37.08;99764.00;5110682;28;20499;-70
2022/09/17 09:23:19;;;;;;;2.83;1.30;;;;;;;21.57;38.54;99755.66;5106296;28;20512;-69
2022/09/17 09:26:00;;;;;;;3.30;1.20;;;;;;;20.98;37.79;99757.00;5097530;28;20505;-69
2022/09/17 09:28:35;;;;;;;4.97;1.30;;;;;;;20.60;38.28;99763.28;5097796;28;20464;-69
2022/09/17 09:31:12;;;;;;;4.50;1.67;;;;;;;20.27;38.21;99769.72;5090940;28;20471;-69
2022/09/17 09:33:41;;;;;;;3.10;1.10;;;;;;;20.43;37.79;99776.53;5118699;28;20467;-69
2022/09/17 09:36:12;;;;;;;3.00;0.80;;;;;;;20.29;36.88;99773.91;5116852;28;20503;-69
2022/09/17 09:38:41;;;;;;;2.67;0.77;;;;;;;21.76;35.01;99772.00;5119174;28;20463;-69
2022/09/17 09:41:10;;;;;;;3.80;1.00;;;;;;;22.16;34.51;99769.63;5098338;28;21129;-69
2022/09/17 09:43:41;;;;;;;3.67;1.10;;;;;;;22.02;34.50;99781.75;5104971;28;20479;-68
2022/09/17 09:46:20;;;;;;;2.77;0.87;;;;;;;20.77;36.96;99780.75;5096533;28;21129;-69
2022/09/17 09:48:53;;;;;;;5.63;1.00;;;;;;;23.36;33.02;99777.97;5092559;28;20459;-69
2022/09/17 09:51:30;;;;;;;4.70;1.07;;;;;;;21.78;34.11;99778.03;5112215;27;20467;-69
2022/09/17 09:54:07;;;;;;;4.90;1.00;;;;;;;20.98;35.61;99778.72;5089974;28;20484;-69
2022/09/17 09:56:44;;;;;;;3.87;0.80;;;;;;;21.08;35.93;99776.34;5106538;28;20456;-68
2022/09/17 09:59:12;;;;;;;1.83;0.77;;;;;;;21.62;34.72;99769.41;5115533;28;21058;-68
2022/09/17 10:01:42;;;;;;;1.57;0.70;;;;;;;20.32;37.07;99761.75;5097656;28;20478;-68
2022/09/17 10:04:16;;;;;;;4.33;1.00;;;;;;;20.54;36.96;99772.31;5098314;28;20673;-68
2022/09/17 10:06:43;;;;;;;4.37;1.50;;;;;;;18.44;39.37;99769.19;5098505;28;20518;-68
2022/09/17 10:09:11;;;;;;;7.03;1.63;;;;;;;19.86;38.39;99781.75;5112195;28;20483;-68
2022/09/17 10:11:38;;;;;;;3.47;1.20;;;;;;;20.78;36.31;99779.72;5104695;28;21259;-68
2022/09/17 10:14:23;;;;;;;4.43;1.20;;;;;;;20.75;36.35;99772.00;5118957;28;20480;-67
2022/09/17 10:16:53;;;;;;;4.10;2.20;;;;;;;20.91;36.32;99758.94;5104755;28;20480;-67
2022/09/17 10:19:24;;;;;;;5.10;1.53;;;;;;;19.68;37.24;99766.13;5098309;28;21103;-68
2022/09/17 10:21:52;;;;;;;4.47;1.10;;;;;;;18.22;41.25;99767.66;5097451;28;20499;-68
2022/09/17 10:24:23;;;;;;;6.40;1.53;;;;;;;18.51;40.79;99763.78;5096722;28;20439;-68
2022/09/17 10:26:51;;;;;;;4.70;1.23;;;;;;;20.62;36.89;99758.50;5098006;28;20480;-67
2022/09/17 10:29:19;;;;;;;4.43;1.10;;;;;;;18.83;38.62;99764.09;5098539;28;20456;-67
2022/09/17 10:31:47;;;;;;;7.07;1.30;;;;;;;18.44;40.51;99766.47;5098195;28;20477;-69
2022/09/17 10:34:21;;;;;;;6.97;2.07;;;;;;;18.05;40.22;99759.91;5098724;28;20543;-68
2022/09/17 10:36:49;;;;;;;2.80;0.90;;;;;;;18.80;39.32;99765.31;5098789;28;20465;-67
2022/09/17 10:39:30;;;;;;;4.60;1.10;;;;;;;18.84;38.61;99752.22;5098630;28;20943;-67
2022/09/17 10:41:58;;;;;;;7.00;1.17;;;;;;;19.02;38.61;99756.19;5097972;28;20534;-68
2022/09/17 10:44:26;;;;;;;4.77;1.43;;;;;;;18.84;39.12;99754.94;5097809;28;20480;-67
2022/09/17 10:46:54;;;;;;;2.70;1.07;;;;;;;19.92;37.74;99751.06;5098829;28;20475;-68
2022/09/17 10:49:34;;;;;;;5.13;0.97;;;;;;;17.70;41.30;99732.03;5097406;28;20466;-69
2022/09/17 10:52:12;;;;;;;7.00;1.07;;;;;;;17.50;42.57;99750.84;5098330;28;20479;-67
2022/09/17 10:55:12;;;;;;;2.40;0.73;;;;;;;20.21;38.11;99746.16;5107252;28;20532;-68
2022/09/17 10:57:50;;;;;;;4.00;0.87;;;;;;;20.26;36.75;99739.03;5118490;28;20451;-67
2022/09/17 11:00:18;;;;;;;2.93;0.83;;;;;;;21.27;34.33;99730.22;5105535;28;20455;-69
2022/09/17 11:03:21;;;;;;;3.90;1.00;;;;;;;21.44;34.71;99734.84;5099210;28;20435;-68
2022/09/17 11:06:03;;;;;;;8.47;1.57;;;;;;;18.43;42.25;99731.50;5074638;27;20540;-67
2022/09/17 11:08:34;;;;;;;2.30;1.13;;;;;;;16.74;47.36;99740.66;5098224;28;20515;-68
2022/09/17 11:11:04;;;;;;;2.80;0.70;;;;;;;18.28;43.00;99749.78;5093372;28;20510;-67
2022/09/17 11:13:36;;;;;;;6.17;1.03;;;;;;;19.25;41.50;99739.50;5098492;28;20454;-68
2022/09/17 11:16:14;;;;;;;2.77;0.80;;;;;;;18.27;43.27;99734.59;5093909;28;20563;-67
2022/09/17 11:18:43;;;;;;;6.00;0.77;;;;;;;19.31;42.44;99733.25;5097544;28;20444;-67
2022/09/17 11:21:31;;;;;;;1.43;0.77;;;;;;;19.77;39.91;99739.66;5096656;28;21059;-68
2022/09/17 11:24:27;;;;;;;2.10;0.70;;;;;;;18.64;41.24;99738.63;5096538;28;20518;-68
2022/09/17 11:26:59;;;;;;;6.83;1.20;;;;;;;18.86;41.33;99736.59;5097759;28;21024;-67
2022/09/17 11:29:53;;;;;;;3.80;0.70;;;;;;;17.83;43.25;99733.97;5098217;28;20467;-68
2022/09/17 11:32:43;;;;;;;1.83;0.87;;;;;;;18.49;42.31;99735.25;5097574;28;20474;-68
2022/09/17 11:35:13;;;;;;;1.37;0.77;;;;;;;19.17;41.20;99735.97;5084097;28;20490;-68
2022/09/17 11:37:47;;;;;;;2.97;0.83;;;;;;;19.54;40.72;99728.19;5104582;28;20504;-68
2022/09/17 11:40:17;;;;;;;4.80;0.60;;;;;;;20.05;39.02;99728.47;5092666;28;21024;-68
2022/09/17 11:42:48;;;;;;;2.30;0.60;;;;;;;19.04;40.34;99732.44;5113421;28;20482;-68
2022/09/17 11:45:17;;;;;;;2.53;0.83;;;;;;;18.53;41.58;99744.66;5109754;28;21061;-69